John_paul K — PBHY — position and weather

sailwx.info

Track history (hours):
 
Tides and Currents Weather Stations Pressure Air Temp Water Temp Dewpoint Dewpoint Depression Visibility Wind Speed Wind Dir Waves Ship Positions

John_paul K

Last reported at 2015-Jul-02 09:28 UTC. Time now 2015-Jul-03 02:35 UTC.
Position N 43°38' W 006°05'.

Length 90 m; draft 5.2 m.

Type: Cargo ship. MMSI: 245181000.

Date/timePositionNaut miles runAvg speedWind from/ knotsBaromVisibWave heightAir tempDewpointWater temp
2015-Jul-02 09:28N 43°38' W 006°05'  
2015-Jun-28 01:24N 50°00' W 002°40'7 8.9
2015-Jun-28 00:33N 50°02' W 002°29'10 9.7
2015-Jun-27 23:32N 50°06' W 002°14'1110.5
2015-Jun-27 22:31N 50°09' W 001°58'1010.7
2015-Jun-27 21:33N 50°12' W 001°43'1010.2
2015-Jun-27 20:33N 50°15' W 001°28'19 9.4
2015-Jun-27 18:30N 50°20' W 000°59'50 8.4
2015-Jun-27 12:33N 50°35' E 000°17'1010.4
2015-Jun-27 11:33N 50°38' E 000°32'10 9.9
2015-Jun-27 10:33N 50°44' E 000°45'10 9.4
2015-Jun-27 09:28N 50°50' E 000°58'28 8.8
2015-Jun-27 06:18N 51°07' E 001°32'7 9.4
2015-Jun-27 05:33N 51°12' E 001°41'1010.1
2015-Jun-27 04:33N 51°19' E 001°52'1111.0
2015-Jun-27 03:33N 51°28' E 002°02'59 9.4
2015-Jun-26 21:19N 52°14' E 003°01'33 8.8
2015-Jun-26 17:33N 52°40' E 003°35'1110.6
2015-Jun-26 16:33N 52°48' E 003°46'1110.6
2015-Jun-26 15:33N 52°56' E 003°58'1010.1
2015-Jun-26 14:33N 53°03' E 004°10'9 9.4
2015-Jun-26 13:33N 53°10' E 004°21'9 8.6
2015-Jun-26 12:33N 53°17' E 004°28'10 8.2
2015-Jun-26 11:22N 53°26' E 004°36'8 8.6
2015-Jun-26 10:29N 53°30' E 004°46'9 9.8
2015-Jun-26 09:33N 53°33' E 005°01'1110.8
2015-Jun-26 08:33N 53°37' E 005°18'1110.9
2015-Jun-26 07:33N 53°40' E 005°35'1110.7
2015-Jun-26 06:33N 53°44' E 005°52'10 9.8
2015-Jun-26 05:31N 53°47' E 006°09'66 8.9
2015-Jun-25 22:09N 54°01' E 007°58'1110.8
2015-Jun-25 21:08N 54°00' E 008°16'1114.6
2015-Jun-25 20:24N 53°58' E 008°34'1012.3
2015-Jun-25 19:33N 53°51' E 008°46'1110.5
2015-Jun-25 18:33N 53°52' E 009°04'5 4.9
2015-Jun-25 17:33N 53°55' E 009°11'8 8.1
2015-Jun-25 16:33N 54°02' E 009°18'0 0.3
2015-Jun-25 15:34N 54°02' E 009°18'13 6.4
2015-Jun-25 13:33N 54°12' E 009°33'8 7.7
2015-Jun-25 12:33N 54°18' E 009°42'7 6.7
2015-Jun-25 11:33N 54°22' E 009°51'5 5.1
2015-Jun-25 10:33N 54°21' E 009°59'5 4.6
2015-Jun-25 09:33N 54°22' E 010°07'0 0.0
2015-Jun-25 08:33N 54°22' E 010°07'0 0.4
2015-Jun-25 07:33N 54°22' E 010°07'1 1.1
2015-Jun-25 06:33N 54°22' E 010°09'1 1.4
2015-Jun-25 05:33N 54°23' E 010°11'10 9.6
2015-Jun-25 04:33N 54°31' E 010°20'9 9.1
2015-Jun-25 03:33N 54°34' E 010°35'18 9.0
2015-Jun-25 01:33N 54°36' E 011°06'8 8.4
2015-Jun-25 00:33N 54°34' E 011°20'8 8.5
2015-Jun-24 23:33N 54°31' E 011°34'9 9.1
2015-Jun-24 22:33N 54°28' E 011°49'9 8.9
2015-Jun-24 21:33N 54°27' E 012°04'91 6.1
2015-Jun-24 06:33N 53°46' E 014°23'1010.2
2015-Jun-24 05:33N 53°38' E 014°34'9 9.2
2015-Jun-24 04:33N 53°29' E 014°37'0 0.4
2015-Jun-24 03:31N 53°29' E 014°37'0 0.0
2015-Jun-24 02:31N 53°29' E 014°37'0 0.0
2015-Jun-24 01:31N 53°29' E 014°37'0 0.0
2015-Jun-24 00:28N 53°29' E 014°37'0 0.0
2015-Jun-23 23:31N 53°29' E 014°37'0 0.0
2015-Jun-23 22:31N 53°29' E 014°37'0 0.0
2015-Jun-23 21:31N 53°29' E 014°37'0 0.0
2015-Jun-23 20:31N 53°29' E 014°37'0 0.0
2015-Jun-23 19:31N 53°29' E 014°37'0 0.0
2015-Jun-23 19:04N 53°29' E 014°37'0 0.0
2015-Jun-22 19:33N 53°29' E 014°37'0 0.0
2015-Jun-22 18:33N 53°29' E 014°37'0 0.0
2015-Jun-22 17:33N 53°29' E 014°37'0 0.0
2015-Jun-22 16:33N 53°29' E 014°37'0 0.0
2015-Jun-22 15:33N 53°29' E 014°37'0 0.0
2015-Jun-22 14:33N 53°29' E 014°37'0 0.0
2015-Jun-22 13:33N 53°29' E 014°37'0 0.0
2015-Jun-22 12:30N 53°29' E 014°37'0 0.0
2015-Jun-22 11:33N 53°29' E 014°37'0 0.0
2015-Jun-22 10:33N 53°29' E 014°37'0 0.0
2015-Jun-22 09:33N 53°29' E 014°37'  
Track history (hours):
 
Tides and Currents Weather Stations Pressure Air Temp Water Temp Dewpoint Dewpoint Depression Visibility Wind Speed Wind Dir Waves Ship Positions

John_paul K

Last reported at 2015-Jul-02 09:28 UTC. Time now 2015-Jul-03 02:35 UTC.
Position N 43°38' W 006°05'.

Length 90 m; draft 5.2 m.

Type: Cargo ship. MMSI: 245181000.

Date/timePositionNaut miles runAvg speedWind from/ knotsBaromVisibWave heightAir tempDewpointWater temp
2015-Jul-02 09:28N 43°38' W 006°05'  
2015-Jun-28 01:24N 50°00' W 002°40'7 8.9
2015-Jun-28 00:33N 50°02' W 002°29'10 9.7
2015-Jun-27 23:32N 50°06' W 002°14'1110.5
2015-Jun-27 22:31N 50°09' W 001°58'1010.7
2015-Jun-27 21:33N 50°12' W 001°43'1010.2
2015-Jun-27 20:33N 50°15' W 001°28'19 9.4
2015-Jun-27 18:30N 50°20' W 000°59'50 8.4
2015-Jun-27 12:33N 50°35' E 000°17'1010.4
2015-Jun-27 11:33N 50°38' E 000°32'10 9.9
2015-Jun-27 10:33N 50°44' E 000°45'10 9.4
2015-Jun-27 09:28N 50°50' E 000°58'28 8.8
2015-Jun-27 06:18N 51°07' E 001°32'7 9.4
2015-Jun-27 05:33N 51°12' E 001°41'1010.1
2015-Jun-27 04:33N 51°19' E 001°52'1111.0
2015-Jun-27 03:33N 51°28' E 002°02'59 9.4
2015-Jun-26 21:19N 52°14' E 003°01'33 8.8
2015-Jun-26 17:33N 52°40' E 003°35'1110.6
2015-Jun-26 16:33N 52°48' E 003°46'1110.6
2015-Jun-26 15:33N 52°56' E 003°58'1010.1
2015-Jun-26 14:33N 53°03' E 004°10'9 9.4
2015-Jun-26 13:33N 53°10' E 004°21'9 8.6
2015-Jun-26 12:33N 53°17' E 004°28'10 8.2
2015-Jun-26 11:22N 53°26' E 004°36'8 8.6
2015-Jun-26 10:29N 53°30' E 004°46'9 9.8
2015-Jun-26 09:33N 53°33' E 005°01'1110.8
2015-Jun-26 08:33N 53°37' E 005°18'1110.9
2015-Jun-26 07:33N 53°40' E 005°35'1110.7
2015-Jun-26 06:33N 53°44' E 005°52'10 9.8
2015-Jun-26 05:31N 53°47' E 006°09'66 8.9
2015-Jun-25 22:09N 54°01' E 007°58'1110.8
2015-Jun-25 21:08N 54°00' E 008°16'1114.6
2015-Jun-25 20:24N 53°58' E 008°34'1012.3
2015-Jun-25 19:33N 53°51' E 008°46'1110.5
2015-Jun-25 18:33N 53°52' E 009°04'5 4.9
2015-Jun-25 17:33N 53°55' E 009°11'8 8.1
2015-Jun-25 16:33N 54°02' E 009°18'0 0.3
2015-Jun-25 15:34N 54°02' E 009°18'13 6.4
2015-Jun-25 13:33N 54°12' E 009°33'8 7.7
2015-Jun-25 12:33N 54°18' E 009°42'7 6.7
2015-Jun-25 11:33N 54°22' E 009°51'5 5.1
2015-Jun-25 10:33N 54°21' E 009°59'5 4.6
2015-Jun-25 09:33N 54°22' E 010°07'0 0.0
2015-Jun-25 08:33N 54°22' E 010°07'0 0.4
2015-Jun-25 07:33N 54°22' E 010°07'1 1.1
2015-Jun-25 06:33N 54°22' E 010°09'1 1.4
2015-Jun-25 05:33N 54°23' E 010°11'10 9.6
2015-Jun-25 04:33N 54°31' E 010°20'9 9.1
2015-Jun-25 03:33N 54°34' E 010°35'18 9.0
2015-Jun-25 01:33N 54°36' E 011°06'8 8.4
2015-Jun-25 00:33N 54°34' E 011°20'8 8.5
2015-Jun-24 23:33N 54°31' E 011°34'9 9.1
2015-Jun-24 22:33N 54°28' E 011°49'9 8.9
2015-Jun-24 21:33N 54°27' E 012°04'91 6.1
2015-Jun-24 06:33N 53°46' E 014°23'1010.2
2015-Jun-24 05:33N 53°38' E 014°34'9 9.2
2015-Jun-24 04:33N 53°29' E 014°37'0 0.4
2015-Jun-24 03:31N 53°29' E 014°37'0 0.0
2015-Jun-24 02:31N 53°29' E 014°37'0 0.0
2015-Jun-24 01:31N 53°29' E 014°37'0 0.0
2015-Jun-24 00:28N 53°29' E 014°37'0 0.0
2015-Jun-23 23:31N 53°29' E 014°37'0 0.0
2015-Jun-23 22:31N 53°29' E 014°37'0 0.0
2015-Jun-23 21:31N 53°29' E 014°37'0 0.0
2015-Jun-23 20:31N 53°29' E 014°37'0 0.0
2015-Jun-23 19:31N 53°29' E 014°37'0 0.0
2015-Jun-23 19:04N 53°29' E 014°37'0 0.0
2015-Jun-22 19:33N 53°29' E 014°37'0 0.0
2015-Jun-22 18:33N 53°29' E 014°37'0 0.0
2015-Jun-22 17:33N 53°29' E 014°37'0 0.0
2015-Jun-22 16:33N 53°29' E 014°37'0 0.0
2015-Jun-22 15:33N 53°29' E 014°37'0 0.0
2015-Jun-22 14:33N 53°29' E 014°37'0 0.0
2015-Jun-22 13:33N 53°29' E 014°37'0 0.0
2015-Jun-22 12:30N 53°29' E 014°37'0 0.0
2015-Jun-22 11:33N 53°29' E 014°37'0 0.0
2015-Jun-22 10:33N 53°29' E 014°37'0 0.0
2015-Jun-22 09:33N 53°29' E 014°37'  

Dump ship's entire track history